Time;durP1;ratioP1;P1;durP2;ratioP2;P2;SDS_P1;SDS_P2;PMS_P1;PMS_P2;Temp;Humidity;BMP_temperature;BMP_pressure;BME280_temperature;BME280_humidity;BME280_pressure;Samples;Min_cycle;Max_cycle;Signal;HPM_P1;HPM_P2
2024/02/24 00:11:09;;;;;;;0.50;0.50;;;;;;;5.99;51.36;93251.44;6211859;23;20005;-87
2024/02/24 00:13:34;;;;;;;0.98;0.60;;;;;;;6.19;51.25;93255.84;6188062;23;20015;-87
2024/02/24 00:16:07;;;;;;;1.02;0.70;;;;;;;6.19;50.16;93248.09;6187991;23;20008;-87
2024/02/24 00:18:33;;;;;;;2.10;0.70;;;;;;;6.23;50.77;93254.44;6164207;23;20062;-87
2024/02/24 00:25:59;;;;;;;0.93;0.50;;;;;;;5.90;51.38;93257.75;6213464;23;20020;-88
2024/02/24 00:28:24;;;;;;;0.95;0.50;;;;;;;5.90;51.84;93260.31;6188048;23;20022;-87
2024/02/24 00:30:50;;;;;;;1.02;0.50;;;;;;;5.97;51.98;93260.38;6188748;23;20083;-87
2024/02/24 00:35:51;;;;;;;1.13;0.60;;;;;;;5.68;52.11;93267.44;6205001;23;20024;-87
2024/02/24 00:38:16;;;;;;;1.20;0.45;;;;;;;5.68;52.51;93260.50;6219039;23;20026;-87
2024/02/24 00:48:28;;;;;;;2.67;0.75;;;;;;;5.25;53.38;93288.31;6224743;22;20024;-87
2024/02/24 00:50:54;;;;;;;2.05;0.80;;;;;;;5.09;52.87;93279.94;6218569;23;20007;-87
2024/02/24 00:53:19;;;;;;;1.85;1.10;;;;;;;4.88;53.55;93290.34;6217861;23;20004;-87
2024/02/24 01:00:45;;;;;;;1.00;0.80;;;;;;;4.90;53.68;93290.94;6242020;23;20012;-87
2024/02/24 01:03:10;;;;;;;1.15;0.77;;;;;;;5.07;52.71;93294.00;6218441;23;20015;-87
2024/02/24 01:05:36;;;;;;;1.45;0.70;;;;;;;5.09;52.72;93299.75;6193671;23;20012;-87
2024/02/24 01:08:01;;;;;;;1.30;0.80;;;;;;;5.08;53.08;93300.75;6221097;23;20000;-88
2024/02/24 01:10:28;;;;;;;3.50;0.65;;;;;;;5.03;53.30;93282.50;6228452;23;20027;-87
2024/02/24 01:25:40;;;;;;;1.23;0.47;;;;;;;5.25;51.92;93289.16;6243070;22;20036;-86
2024/02/24 01:28:05;;;;;;;0.45;0.45;;;;;;;5.00;52.68;93265.63;6220317;23;20012;-87
2024/02/24 01:30:31;;;;;;;0.60;0.60;;;;;;;4.94;53.20;93268.97;6186675;23;20021;-87
2024/02/24 01:32:56;;;;;;;0.47;0.40;;;;;;;5.16;52.31;93253.41;6240203;23;20040;-87
2024/02/24 01:35:22;;;;;;;0.88;0.60;;;;;;;5.20;52.34;93254.63;6165046;23;19997;-87
2024/02/24 01:40:12;;;;;;;1.03;0.50;;;;;;;5.15;53.57;93270.66;6215071;23;20087;-87
2024/02/24 01:42:42;;;;;;;1.13;0.45;;;;;;;5.18;52.82;93265.13;6164288;23;20246;-87
2024/02/24 01:45:07;;;;;;;0.50;0.43;;;;;;;5.30;52.86;93257.63;6189744;23;20016;-87
2024/02/24 01:47:33;;;;;;;0.50;0.40;;;;;;;5.13;53.52;93257.16;6140090;23;20009;-87
2024/02/24 01:49:59;;;;;;;1.95;0.50;;;;;;;5.13;53.12;93243.50;6164698;23;20101;-86
2024/02/24 01:52:26;;;;;;;0.90;0.50;;;;;;;5.19;53.08;93235.78;6184666;22;20009;-87
2024/02/24 01:54:58;;;;;;;1.00;0.50;;;;;;;5.18;52.52;93246.25;6189763;23;20017;-87
2024/02/24 01:57:27;;;;;;;0.55;0.50;;;;;;;5.17;52.79;93230.03;6189964;23;20031;-88
2024/02/24 01:59:56;;;;;;;1.10;0.50;;;;;;;5.32;52.44;93227.28;6189984;23;20011;-87
2024/02/24 02:02:22;;;;;;;1.50;0.50;;;;;;;5.35;52.31;93220.94;6189913;23;20013;-87
2024/02/24 02:04:47;;;;;;;0.40;0.40;;;;;;;5.31;51.60;93219.75;6190108;23;20085;-87
2024/02/24 02:07:13;;;;;;;0.30;0.30;;;;;;;5.16;52.38;93237.94;6194520;23;20021;-86
2024/02/24 02:09:58;;;;;;;0.38;0.30;;;;;;;5.19;51.53;93233.19;6138820;23;20075;-86
2024/02/24 02:12:24;;;;;;;0.40;0.30;;;;;;;5.37;51.88;93235.25;6214234;23;19996;-88
2024/02/24 02:14:53;;;;;;;0.60;0.30;;;;;;;5.40;51.50;93236.63;6214076;23;20003;-86
2024/02/24 02:17:19;;;;;;;1.52;0.50;;;;;;;5.29;52.24;93236.22;6189598;23;20074;-87
2024/02/24 02:19:45;;;;;;;2.00;0.57;;;;;;;5.47;51.16;93232.28;6164582;23;20009;-87
2024/02/24 02:22:16;;;;;;;0.40;0.30;;;;;;;5.45;50.71;93221.38;6164576;23;20011;-88
2024/02/24 02:24:44;;;;;;;0.77;0.43;;;;;;;5.16;51.17;93235.34;6214603;23;20001;-87
2024/02/24 02:27:09;;;;;;;0.95;0.52;;;;;;;4.82;52.43;93231.88;6189607;23;20016;-88
2024/02/24 02:29:35;;;;;;;0.80;0.60;;;;;;;4.85;52.78;93241.78;6189966;23;20000;-87
2024/02/24 02:32:04;;;;;;;0.52;0.50;;;;;;;5.05;52.33;93239.31;6164786;23;20005;-86
2024/02/24 02:34:31;;;;;;;1.40;0.55;;;;;;;5.14;52.43;93237.34;6189265;23;20001;-87
2024/02/24 02:36:59;;;;;;;0.60;0.40;;;;;;;5.13;52.22;93243.50;6189070;23;20015;-87
2024/02/24 02:39:25;;;;;;;0.90;0.50;;;;;;;4.97;52.89;93239.44;6189183;23;20046;-86
2024/02/24 02:41:51;;;;;;;1.38;0.50;;;;;;;4.89;53.51;93237.81;6164962;23;20008;-87
2024/02/24 02:44:16;;;;;;;0.40;0.40;;;;;;;4.96;53.19;93261.06;6189426;23;20072;-86
2024/02/24 02:46:49;;;;;;;0.65;0.40;;;;;;;4.98;52.26;93254.72;6164245;23;20075;-87
2024/02/24 02:49:15;;;;;;;0.45;0.40;;;;;;;4.95;52.30;93249.16;6214279;23;20020;-86
2024/02/24 02:51:41;;;;;;;0.75;0.50;;;;;;;4.92;52.67;93254.69;6189324;23;20008;-87
2024/02/24 02:54:07;;;;;;;0.68;0.50;;;;;;;4.82;52.81;93247.31;6189090;23;20012;-87
2024/02/24 02:58:58;;;;;;;0.52;0.50;;;;;;;5.06;52.50;93259.72;6218451;22;20024;-86
2024/02/24 03:01:24;;;;;;;1.30;0.50;;;;;;;5.04;52.34;93258.31;6194516;23;20065;-86
2024/02/24 03:03:52;;;;;;;0.45;0.40;;;;;;;4.98;52.98;93259.88;6219685;23;20012;-87
2024/02/24 03:06:20;;;;;;;1.15;0.50;;;;;;;4.99;52.69;93263.22;6194105;23;20012;-87
2024/02/24 03:08:46;;;;;;;0.40;0.40;;;;;;;4.89;52.50;93242.97;6219182;23;20008;-87
2024/02/24 03:13:40;;;;;;;0.57;0.50;;;;;;;4.82;52.91;93253.25;6214744;22;20012;-87
2024/02/24 03:21:09;;;;;;;1.05;0.50;;;;;;;4.79;52.70;93258.78;6212753;23;20017;-87
2024/02/24 03:23:35;;;;;;;0.93;0.60;;;;;;;4.83;52.47;93261.78;6164516;23;20013;-86
2024/02/24 04:42:44;;;;;;;1.50;0.70;;;;;;;4.59;53.23;93369.41;6213886;23;20020;-87
2024/02/24 04:52:48;;;;;;;1.45;0.60;;;;;;;4.45;53.41;93380.56;6242726;22;20260;-89
2024/02/24 04:55:16;;;;;;;1.55;0.63;;;;;;;4.42;53.74;93406.69;6219003;23;20004;-88
2024/02/24 04:57:46;;;;;;;1.15;0.70;;;;;;;4.35;53.52;93398.09;6221182;23;20008;-88
2024/02/24 05:00:12;;;;;;;1.73;0.65;;;;;;;4.40;53.85;93416.34;6225619;23;20031;-87
2024/02/24 07:55:41;;;;;;;8.45;4.85;;;;;;;6.83;51.39;93665.22;6189744;23;20028;-87
2024/02/24 07:58:12;;;;;;;8.25;5.10;;;;;;;7.32;51.26;93664.19;6217428;23;20039;-88
2024/02/24 08:00:38;;;;;;;10.48;6.30;;;;;;;8.82;47.41;93650.00;6218856;23;20054;-88
2024/02/24 08:21:14;;;;;;;3.22;2.17;;;;;;;13.88;35.90;93661.75;6242271;22;20051;-87
2024/02/24 09:40:11;;;;;;;1.67;0.60;;;;;;;11.30;42.72;93690.22;6209486;23;20025;-86
2024/02/24 09:45:04;;;;;;;1.25;0.70;;;;;;;12.40;42.46;93698.72;6179295;23;20027;-87
2024/02/24 09:47:33;;;;;;;1.08;0.70;;;;;;;12.61;40.16;93689.53;6188209;23;20016;-86
2024/02/24 09:50:00;;;;;;;2.45;0.80;;;;;;;13.00;41.24;93673.38;6190052;23;20008;-86
2024/02/24 09:52:29;;;;;;;1.00;0.90;;;;;;;13.22;39.51;93674.34;6189590;23;20012;-87
2024/02/24 09:54:54;;;;;;;1.08;0.90;;;;;;;13.41;38.84;93690.69;6214001;23;20036;-86
2024/02/24 10:07:35;;;;;;;1.08;0.88;;;;;;;13.13;39.19;93716.72;6224405;22;20086;-87
2024/02/24 10:10:01;;;;;;;1.15;0.90;;;;;;;12.87;38.64;93709.16;6219766;23;20094;-86
2024/02/24 10:12:30;;;;;;;0.80;0.68;;;;;;;12.55;38.96;93695.66;6219118;23;20036;-87
2024/02/24 10:14:56;;;;;;;0.70;0.70;;;;;;;12.26;40.65;93723.41;6195042;23;20031;-88
2024/02/24 10:24:58;;;;;;;1.23;0.80;;;;;;;13.23;39.70;93706.47;6214080;23;20025;-86
2024/02/24 10:27:25;;;;;;;2.17;0.70;;;;;;;13.53;38.06;93714.13;6186946;23;20020;-86
2024/02/24 11:36:29;;;;;;;1.10;0.80;;;;;;;10.11;43.00;93718.97;6225437;22;20098;-87
2024/02/24 11:38:57;;;;;;;0.90;0.80;;;;;;;10.34;43.46;93718.44;6250408;23;20012;-86
2024/02/24 11:41:25;;;;;;;1.27;0.80;;;;;;;10.36;42.80;93720.81;6250447;23;20007;-87
2024/02/24 13:28:28;;;;;;;2.13;0.80;;;;;;;11.89;39.39;93723.53;6243757;22;20032;-87
2024/02/24 13:30:53;;;;;;;0.80;0.73;;;;;;;12.12;39.37;93713.19;6217198;23;20016;-88
2024/02/24 13:33:19;;;;;;;0.70;0.70;;;;;;;12.53;38.90;93708.16;6217475;23;20046;-87
2024/02/24 14:21:53;;;;;;;1.13;1.00;;;;;;;13.25;37.32;93728.72;6269123;22;20024;-87
2024/02/24 14:24:19;;;;;;;1.17;1.00;;;;;;;13.11;35.55;93737.81;6252771;22;20015;-87
2024/02/24 14:59:32;;;;;;;1.00;0.70;;;;;;;11.98;39.47;93756.09;6266552;22;20075;-87
2024/02/24 15:01:57;;;;;;;3.22;0.80;;;;;;;12.00;39.00;93746.25;6277335;22;20019;-87
2024/02/24 18:19:25;;;;;;;2.25;1.88;;;;;;;8.49;50.56;93934.16;6269332;22;20027;-87
2024/02/24 18:21:54;;;;;;;1.52;1.42;;;;;;;8.28;51.75;93944.59;6244125;22;20088;-88
2024/02/24 18:24:19;;;;;;;2.20;1.70;;;;;;;8.65;50.69;93955.50;6197423;22;20003;-87
2024/02/24 18:29:22;;;;;;;2.53;1.73;;;;;;;8.66;50.58;93949.31;6212616;23;20025;-87
2024/02/24 18:31:51;;;;;;;2.88;2.00;;;;;;;8.52;51.31;93962.25;6186822;23;20016;-87
2024/02/24 18:34:16;;;;;;;3.45;2.85;;;;;;;7.87;53.44;93958.38;6212166;23;20008;-87
2024/02/24 19:47:12;;;;;;;2.90;2.05;;;;;;;7.80;53.48;93971.28;6220246;22;20040;-86
2024/02/24 20:02:28;;;;;;;2.35;2.05;;;;;;;7.57;54.07;93976.72;6282538;22;20061;-85
2024/02/24 20:04:54;;;;;;;3.25;2.00;;;;;;;7.84;53.55;93982.84;6250228;22;20020;-86
2024/02/24 20:28:03;;;;;;;2.25;1.50;;;;;;;8.27;51.57;93981.88;6278896;22;20023;-87
2024/02/24 20:30:29;;;;;;;3.13;1.50;;;;;;;8.22;51.75;93972.91;6253970;22;20011;-87
2024/02/24 20:32:54;;;;;;;2.25;1.50;;;;;;;8.14;51.99;93980.03;6228458;22;20026;-87
2024/02/24 20:35:20;;;;;;;1.67;1.50;;;;;;;8.18;52.19;94000.16;6253711;22;20070;-87
2024/02/24 21:51:27;;;;;;;2.28;1.60;;;;;;;7.97;53.64;94013.19;6218166;23;20048;-87
2024/02/24 21:53:55;;;;;;;2.30;1.60;;;;;;;8.00;53.62;94023.19;6217675;23;20102;-87
2024/02/24 21:56:22;;;;;;;2.60;1.75;;;;;;;8.09;53.45;94006.50;6217604;23;20079;-87
2024/02/24 22:24:32;;;;;;;3.10;2.40;;;;;;;7.93;54.28;94009.41;6303758;22;20019;-87
2024/02/24 22:27:01;;;;;;;2.92;1.98;;;;;;;7.76;54.79;94014.88;6252632;22;20015;-87
2024/02/24 22:31:52;;;;;;;3.00;2.47;;;;;;;7.72;54.56;94011.06;6303728;22;20039;-86
2024/02/24 22:34:20;;;;;;;3.20;2.05;;;;;;;7.79;54.33;94016.28;6277961;22;20007;-87
2024/02/24 22:36:46;;;;;;;2.00;1.80;;;;;;;7.60;54.63;94023.72;6253280;22;20093;-88
2024/02/24 22:39:11;;;;;;;2.63;2.00;;;;;;;7.81;54.11;94033.22;6278059;22;20035;-87
2024/02/24 22:41:37;;;;;;;2.63;1.65;;;;;;;7.64;54.45;94021.56;6252513;22;20011;-86
2024/02/24 23:43:22;;;;;;;1.80;1.70;;;;;;;7.63;55.84;94035.47;6266713;22;20031;-87
2024/02/24 23:45:48;;;;;;;2.70;1.80;;;;;;;7.71;54.95;94032.78;6237305;23;20044;-87
2024/02/24 23:48:13;;;;;;;3.15;2.05;;;;;;;7.67;55.40;94020.38;6213664;23;20031;-87
2024/02/24 23:50:39;;;;;;;2.30;1.85;;;;;;;7.78;54.84;94012.09;6213528;23;20059;-87
2024/02/24 23:53:04;;;;;;;2.85;1.90;;;;;;;7.77;54.94;94007.91;6213516;23;20016;-87
2024/02/24 23:55:32;;;;;;;2.58;1.60;;;;;;;7.80;54.69;94013.50;6213734;23;20005;-87
2024/02/24 23:57:58;;;;;;;1.80;1.60;;;;;;;7.74;54.58;94023.81;6213231;23;20063;-87
